Time;durP1;ratioP1;P1;durP2;ratioP2;P2;SDS_P1;SDS_P2;PMS_P1;PMS_P2;Temp;Humidity;BMP_temperature;BMP_pressure;BME280_temperature;BME280_humidity;BME280_pressure;Samples;Min_cycle;Max_cycle;Signal;HPM_P1;HPM_P2
2023/05/09 00:01:38;;;;;;;3.20;1.77;;;;;;;13.84;100.00;96511.41;4959880;28;20280;-84
2023/05/09 00:04:05;;;;;;;3.30;1.77;;;;;;;13.80;100.00;96510.22;4962146;28;20202;-83
2023/05/09 00:06:32;;;;;;;2.27;1.70;;;;;;;13.75;100.00;96502.03;4965053;28;20205;-84
2023/05/09 00:08:59;;;;;;;1.93;1.80;;;;;;;13.68;100.00;96501.38;4953608;28;20300;-84
2023/05/09 00:11:26;;;;;;;1.90;1.80;;;;;;;13.63;100.00;96504.78;4982726;28;20209;-83
2023/05/09 00:13:53;;;;;;;264.10;235.30;;;;;;;13.68;100.00;96499.47;4966379;28;20345;-83
2023/05/09 00:16:22;;;;;;;2.47;1.67;;;;;;;13.68;100.00;96504.06;4960081;28;20245;-84
2023/05/09 00:18:50;;;;;;;2.23;1.40;;;;;;;13.71;100.00;96500.84;4957637;28;20240;-83
2023/05/09 00:21:17;;;;;;;2.03;1.40;;;;;;;13.67;100.00;96499.72;4965762;28;20300;-83
2023/05/09 00:23:45;;;;;;;1.50;1.20;;;;;;;13.61;100.00;96504.22;4968304;28;20205;-84
2023/05/09 00:26:12;;;;;;;1.53;1.33;;;;;;;13.50;100.00;96508.66;4959466;28;20205;-84
2023/05/09 00:28:43;;;;;;;4.83;4.43;;;;;;;13.51;100.00;96504.06;4966781;28;20235;-83
2023/05/09 00:31:10;;;;;;;2.00;1.83;;;;;;;13.49;100.00;96498.88;4963509;28;20255;-84
2023/05/09 00:33:39;;;;;;;218.20;199.33;;;;;;;13.53;100.00;96499.19;4962458;28;20209;-84
2023/05/09 00:36:07;;;;;;;2.87;1.70;;;;;;;13.53;100.00;96496.47;4962375;28;20217;-83
2023/05/09 00:38:34;;;;;;;2.77;1.53;;;;;;;13.53;100.00;96499.19;4963826;28;20217;-84
2023/05/09 00:41:01;;;;;;;392.43;362.97;;;;;;;13.51;100.00;96502.19;4977906;28;20227;-84
2023/05/09 00:43:28;;;;;;;223.00;206.23;;;;;;;13.51;100.00;96496.75;4962489;28;20213;-83
2023/05/09 00:45:56;;;;;;;191.37;175.40;;;;;;;13.54;100.00;96490.81;4960374;28;20270;-84
2023/05/09 00:48:24;;;;;;;191.37;174.53;;;;;;;13.50;100.00;96488.84;4966828;28;20202;-84
2023/05/09 00:50:52;;;;;;;2.93;1.50;;;;;;;13.48;100.00;96488.28;4967184;28;20197;-83
2023/05/09 00:53:20;;;;;;;1.83;1.70;;;;;;;13.38;100.00;96483.47;4967114;28;20200;-83
2023/05/09 00:55:47;;;;;;;1.90;1.70;;;;;;;13.30;100.00;96481.16;4966900;28;20310;-84
2023/05/09 00:58:14;;;;;;;2.13;1.60;;;;;;;13.40;100.00;96480.53;4961941;28;20244;-83
2023/05/09 01:00:42;;;;;;;3.83;1.70;;;;;;;13.42;100.00;96483.81;4961561;28;20250;-83
2023/05/09 01:03:10;;;;;;;2.60;1.57;;;;;;;13.45;100.00;96483.31;4966311;28;20205;-83
2023/05/09 01:05:44;;;;;;;2.60;1.43;;;;;;;13.50;100.00;96481.53;4968321;28;20304;-83
2023/05/09 01:08:22;;;;;;;1.60;1.50;;;;;;;13.58;100.00;96480.31;4958637;28;20286;-84
2023/05/09 01:10:58;;;;;;;2.93;1.50;;;;;;;13.60;100.00;96481.72;4964881;28;20219;-83
2023/05/09 01:13:31;;;;;;;2.97;1.87;;;;;;;13.60;100.00;96475.47;4964293;28;20216;-83
2023/05/09 01:16:07;;;;;;;2.23;1.60;;;;;;;13.63;100.00;96474.94;4984186;28;20368;-84
2023/05/09 01:18:43;;;;;;;3.83;1.70;;;;;;;13.61;100.00;96461.63;4901613;28;1998700;-83
2023/05/09 01:21:15;;;;;;;2.17;1.80;;;;;;;13.65;100.00;96467.41;4965655;28;20221;-83
2023/05/09 01:24:22;;;;;;;2.00;1.80;;;;;;;13.60;100.00;96451.03;4973316;28;20227;-84
2023/05/09 01:27:14;;;;;;;5.57;1.60;;;;;;;13.64;100.00;96457.59;4974712;28;20197;-83
2023/05/09 01:29:47;;;;;;;3.20;1.93;;;;;;;13.62;100.00;96441.56;4967248;28;20209;-83
2023/05/09 01:32:18;;;;;;;1.77;1.60;;;;;;;13.62;100.00;96433.44;4962767;28;20204;-84
2023/05/09 01:34:46;;;;;;;2.50;2.10;;;;;;;13.54;100.00;96433.84;4969928;28;20205;-84
2023/05/09 01:37:15;;;;;;;1.80;1.57;;;;;;;13.45;100.00;96432.59;4971270;28;20236;-83
2023/05/09 01:39:48;;;;;;;2.00;1.70;;;;;;;13.34;100.00;96421.84;4967500;28;20240;-83
2023/05/09 01:42:16;;;;;;;2.23;1.60;;;;;;;13.29;100.00;96428.00;4967047;28;20305;-84
2023/05/09 01:44:47;;;;;;;1.77;1.67;;;;;;;13.29;100.00;96425.28;4970613;28;20204;-83
2023/05/09 01:47:16;;;;;;;3.53;1.67;;;;;;;13.14;100.00;96419.59;4971537;28;20261;-83
2023/05/09 01:49:44;;;;;;;2.30;1.80;;;;;;;13.06;100.00;96414.56;4968666;28;20204;-83
2023/05/09 01:52:16;;;;;;;2.97;1.53;;;;;;;12.98;100.00;96406.81;4974101;28;20216;-83
2023/05/09 01:54:45;;;;;;;4.77;1.80;;;;;;;12.86;100.00;96407.69;4968774;28;20208;-83
2023/05/09 01:57:14;;;;;;;2.03;1.83;;;;;;;12.83;100.00;96412.78;4956552;28;20208;-83
2023/05/09 01:59:44;;;;;;;3.27;1.90;;;;;;;12.88;100.00;96412.88;4984924;28;20241;-83
2023/05/09 02:02:14;;;;;;;4.40;2.00;;;;;;;12.89;100.00;96412.63;4981950;28;20309;-83
2023/05/09 02:04:43;;;;;;;2.00;1.90;;;;;;;12.94;100.00;96416.50;4981810;28;20224;-83
2023/05/09 02:07:11;;;;;;;1.80;1.70;;;;;;;12.97;100.00;96421.44;4979661;28;20244;-83
2023/05/09 02:09:38;;;;;;;4.03;1.40;;;;;;;12.92;100.00;96413.22;4964218;28;20208;-83
2023/05/09 02:12:06;;;;;;;4.83;1.80;;;;;;;12.85;100.00;96425.00;4970602;28;20233;-84
2023/05/09 02:14:33;;;;;;;4.03;1.70;;;;;;;12.80;100.00;96421.41;4971650;28;20304;-83
2023/05/09 02:17:05;;;;;;;3.50;2.47;;;;;;;12.76;100.00;96431.88;4971472;28;20248;-84
2023/05/09 02:19:35;;;;;;;4.17;1.70;;;;;;;12.80;100.00;96438.47;4970126;28;20221;-83
2023/05/09 02:22:03;;;;;;;3.33;1.30;;;;;;;12.80;100.00;96443.91;4964345;28;20213;-84
2023/05/09 02:24:33;;;;;;;5.40;1.40;;;;;;;12.79;100.00;96436.81;4956448;28;20252;-83
2023/05/09 02:27:02;;;;;;;1.53;1.43;;;;;;;12.79;100.00;96431.41;4974097;28;20205;-83
2023/05/09 02:29:38;;;;;;;8.80;1.30;;;;;;;12.77;100.00;96424.56;4971188;28;20196;-83
2023/05/09 02:32:09;;;;;;;1.77;1.47;;;;;;;12.68;100.00;96413.31;4969648;28;20295;-84
2023/05/09 02:34:39;;;;;;;2.27;1.60;;;;;;;12.71;100.00;96423.66;4968266;28;20236;-83
2023/05/09 02:37:07;;;;;;;2.17;1.37;;;;;;;12.69;100.00;96422.25;4968450;28;20216;-83
2023/05/09 02:39:36;;;;;;;3.57;1.33;;;;;;;12.63;100.00;96426.75;4969026;28;20221;-83
2023/05/09 02:42:07;;;;;;;2.17;1.13;;;;;;;12.52;100.00;96419.50;4969737;28;20219;-83
2023/05/09 02:44:35;;;;;;;19.47;13.60;;;;;;;12.49;100.00;96418.09;4971787;28;20201;-84
2023/05/09 02:47:02;;;;;;;;;;;;;;;12.51;100.00;96413.25;4968690;28;20467;-84
2023/05/09 02:49:29;;;;;;;;;;;;;;;12.54;100.00;96417.38;4967530;28;19974;-85
2023/05/09 02:51:58;;;;;;;;;;;;;;;12.52;100.00;96419.50;4969084;28;20053;-84
2023/05/09 02:54:25;;;;;;;;;;;;;;;12.51;100.00;96413.25;4967202;28;20035;-83
2023/05/09 02:56:51;;;;;;;;;;;;;;;12.53;100.00;96413.00;4968225;28;19949;-84
2023/05/09 02:59:18;;;;;;;;;;;;;;;12.54;100.00;96409.25;4976364;28;19971;-84
2023/05/09 03:01:45;;;;;;;;;;;;;;;12.48;100.00;96402.09;4968450;28;19980;-82
2023/05/09 03:04:12;;;;;;;;;;;;;;;12.45;100.00;96406.09;4978651;28;20022;-83
2023/05/09 03:06:39;;;;;;;;;;;;;;;12.44;100.00;96406.31;4959601;28;19959;-84
2023/05/09 03:09:07;;;;;;;;;;;;;;;12.44;100.00;96403.63;4967913;28;19941;-83
2023/05/09 03:11:35;;;;;;;;;;;;;;;12.45;100.00;96410.69;4970353;28;20029;-84
2023/05/09 03:14:02;;;;;;;;;;;;;;;12.43;100.00;96418.22;4963034;28;19979;-84
2023/05/09 03:16:29;;;;;;;;;;;;;;;12.38;100.00;96412.72;4968204;28;19987;-84
2023/05/09 03:18:57;;;;;;;;;;;;;;;12.36;100.00;96406.72;4969332;28;19966;-84
2023/05/09 03:21:23;;;;;;;;;;;;;;;12.25;100.00;96399.47;4977015;28;19946;-84
2023/05/09 03:23:50;;;;;;;;;;;;;;;12.18;100.00;96396.03;4969865;28;19949;-83
2023/05/09 03:26:18;;;;;;;;;;;;;;;12.19;100.00;96384.16;4959102;28;19954;-84
2023/05/09 03:28:47;;;;;;;;;;;;;;;12.07;100.00;96393.16;4967329;28;19951;-84
2023/05/09 03:31:15;;;;;;;;;;;;;;;12.15;100.00;96391.13;4965040;28;20005;-84
2023/05/09 03:33:42;;;;;;;;;;;;;;;12.18;100.00;96379.81;4978048;28;19955;-84
2023/05/09 03:36:09;;;;;;;;;;;;;;;12.25;100.00;96391.34;4964429;28;19945;-84
2023/05/09 03:38:37;;;;;;;;;;;;;;;12.30;100.00;96388.72;4962427;28;20047;-84
2023/05/09 03:41:05;;;;;;;;;;;;;;;12.27;100.00;96387.31;4956624;28;19952;-84
2023/05/09 03:43:35;;;;;;;;;;;;;;;12.27;100.00;96390.03;4967960;28;19953;-84
2023/05/09 03:46:01;;;;;;;;;;;;;;;12.24;100.00;96390.53;4965001;28;19957;-83
2023/05/09 03:48:28;;;;;;;;;;;;;;;12.17;100.00;96387.09;4967264;28;19945;-84
2023/05/09 03:50:57;;;;;;;;;;;;;;;12.19;100.00;96382.28;4969379;28;19942;-83
2023/05/09 03:53:27;;;;;;;;;;;;;;;12.19;100.00;96386.84;4969771;28;19941;-83
2023/05/09 03:55:54;;;;;;;;;;;;;;;12.16;100.00;96381.94;4968864;28;19949;-84
2023/05/09 03:58:22;;;;;;;;;;;;;;;12.21;100.00;96373.91;4967043;28;19944;-84
2023/05/09 04:00:50;;;;;;;;;;;;;;;12.22;100.00;96380.97;4969068;28;19974;-82
2023/05/09 04:03:21;;;;;;;;;;;;;;;12.22;100.00;96376.38;4966603;28;19955;-83
2023/05/09 04:05:50;;;;;;;;;;;;;;;12.25;100.00;96375.09;4985480;28;20031;-83
2023/05/09 04:08:35;;;;;;;;;;;;;;;12.28;100.00;96378.13;4978213;28;19945;-84
2023/05/09 04:11:03;;;;;;;;;;;;;;;12.31;100.00;96382.25;4969667;28;19957;-84
2023/05/09 04:13:31;;;;;;;;;;;;;;;12.31;100.00;96374.94;4970400;28;19954;-83
2023/05/09 04:16:03;;;;;;;;;;;;;;;12.34;100.00;96379.03;4958355;28;19951;-84
2023/05/09 04:18:32;;;;;;;;;;;;;;;12.31;100.00;96384.97;4961507;28;20053;-83
2023/05/09 04:20:59;;;;;;;;;;;;;;;12.31;100.00;96379.53;4985991;28;19980;-84
2023/05/09 04:23:26;;;;;;;;;;;;;;;12.28;100.00;96377.31;4980124;28;19978;-83
2023/05/09 04:25:57;;;;;;;;;;;;;;;12.30;100.00;96380.59;4979120;28;19950;-83
2023/05/09 04:28:25;;;;;;;;;;;;;;;12.30;100.00;96383.31;4962345;28;19955;-84
2023/05/09 04:30:52;;;;;;;;;;;;;;;12.30;100.00;96386.03;4967906;28;20012;-84
2023/05/09 04:33:23;;;;;;;;;;;;;;;12.34;100.00;96395.28;4968113;28;19948;-84
2023/05/09 04:35:51;;;;;;;;;;;;;;;12.35;100.00;96397.75;4982917;28;19947;-83
2023/05/09 04:38:18;;;;;;;;;;;;;;;12.41;100.00;96393.28;4972253;28;19950;-85
2023/05/09 04:40:46;;;;;;;;;;;;;;;12.48;100.00;96388.56;4957655;28;20000;-84
2023/05/09 04:43:13;;;;;;;;;;;;;;;12.51;100.00;96390.75;4967332;28;19946;-84
2023/05/09 04:45:40;;;;;;;;;;;;;;;12.56;100.00;96409.00;4979888;28;19944;-83
2023/05/09 04:48:07;;;;;;;;;;;;;;;12.52;100.00;96405.94;4968205;28;19939;-84
2023/05/09 04:50:35;;;;;;;;;;;;;;;12.51;100.00;96409.72;4964976;28;19938;-84
2023/05/09 04:53:03;;;;;;;;;;;;;;;12.46;100.00;96399.63;4966521;28;19956;-83
2023/05/09 04:55:30;;;;;;;;;;;;;;;12.50;100.00;96410.81;4976898;28;19951;-84
2023/05/09 04:57:57;;;;;;;;;;;;;;;12.58;100.00;96404.19;4967208;28;19977;-84
2023/05/09 05:00:24;;;;;;;;;;;;;;;12.63;100.00;96415.09;4968449;28;20185;-84
2023/05/09 05:02:51;;;;;;;;;;;;;;;12.65;100.00;96413.81;4971036;28;19941;-84
2023/05/09 05:05:18;;;;;;;;;;;;;;;12.68;100.00;96404.34;4966343;28;19957;-84
2023/05/09 05:07:47;;;;;;;;;;;;;;;12.74;100.00;96395.28;4972255;28;19968;-84
2023/05/09 05:10:19;;;;;;;;;;;;;;;12.78;100.00;96405.38;4967002;28;19946;-84
2023/05/09 05:12:50;;;;;;;;;;;;;;;12.82;100.00;96408.44;4965336;28;19943;-84
2023/05/09 05:15:18;;;;;;;;;;;;;;;12.82;100.00;96408.44;4972943;28;19988;-84
2023/05/09 05:17:46;;;;;;;;;;;;;;;12.80;100.00;96405.97;4969803;28;20066;-84
2023/05/09 05:20:16;;;;;;;;;;;;;;;12.87;100.00;96412.06;4967963;28;19967;-84
2023/05/09 05:22:48;;;;;;;;;;;;;;;12.98;100.00;96398.69;4961074;28;20009;-84
2023/05/09 05:25:16;;;;;;;;;;;;;;;13.09;100.00;96400.53;4983318;28;19949;-84
2023/05/09 05:27:45;;;;;;;;;;;;;;;13.16;100.00;96406.63;4965173;28;19945;-84
2023/05/09 05:30:14;;;;;;;;;;;;;;;13.22;100.00;96403.75;4965749;28;19942;-84
2023/05/09 05:32:42;;;;;;;;;;;;;;;13.26;100.00;96404.09;4976033;28;19941;-84
2023/05/09 05:35:10;;;;;;;;;;;;;;;13.18;100.00;96404.50;4959636;28;19946;-84
2023/05/09 05:37:38;;;;;;;;;;;;;;;13.22;100.00;96405.66;4959092;28;20018;-84
2023/05/09 05:40:07;;;;;;;;;;;;;;;13.30;100.00;96409.84;4956072;28;19964;-84
2023/05/09 05:42:36;;;;;;;;;;;;;;;13.37;100.00;96410.50;4957494;28;19978;-84
2023/05/09 05:45:04;;;;;;;;;;;;;;;13.28;100.00;96415.50;4967135;28;19983;-83
2023/05/09 05:47:34;;;;;;;;;;;;;;;13.27;100.00;96416.56;4965053;28;20060;-84
2023/05/09 05:50:00;;;;;;;;;;;;;;;13.22;100.00;96411.91;4963721;28;19951;-84
2023/05/09 05:52:27;;;;;;;;;;;;;;;13.20;100.00;96414.03;4959555;28;19945;-85
2023/05/09 05:54:55;;;;;;;;;;;;;;;13.27;100.00;96400.28;4962914;28;20024;-84
2023/05/09 05:57:25;;;;;;;;;;;;;;;13.31;100.00;96412.31;4970991;28;19981;-84
2023/05/09 05:59:52;;;;;;;;;;;;;;;13.32;100.00;96402.28;4960100;28;20054;-84
2023/05/09 06:02:21;;;;;;;;;;;;;;;13.34;100.00;96400.16;4962083;28;19954;-84
2023/05/09 06:04:48;;;;;;;;;;;;;;;13.41;100.00;96396.22;4961064;28;20006;-84
2023/05/09 06:07:16;;;;;;;;;;;;;;;13.48;100.00;96398.75;4972136;28;20049;-84
2023/05/09 06:09:43;;;;;;;;;;;;;;;13.53;100.00;96386.06;4983366;28;20037;-84
2023/05/09 06:12:10;;;;;;;;;;;;;;;13.68;100.00;96385.50;4964979;28;19949;-82
2023/05/09 06:14:39;;;;;;;;;;;;;;;13.76;100.00;96393.22;4979060;28;19956;-85
2023/05/09 06:17:06;;;;;;;;;;;;;;;13.88;100.00;96390.38;4972949;28;20024;-84
2023/05/09 06:19:33;;;;;;;;;;;;;;;13.94;100.00;96389.41;4967065;28;19945;-83
2023/05/09 06:21:59;;;;;;;;;;;;;;;13.93;100.00;96382.34;4959892;28;19954;-85
2023/05/09 06:24:26;;;;;;;;;;;;;;;13.97;100.00;96384.28;4970239;28;19954;-86
2023/05/09 06:26:54;;;;;;;;;;;;;;;14.02;100.00;96378.13;4967401;28;19983;-85
2023/05/09 06:29:21;;;;;;;;;;;;;;;13.99;100.00;96384.88;4966779;28;19971;-84
2023/05/09 06:31:49;;;;;;;;;;;;;;;13.95;100.00;96380.19;4965805;28;20038;-84
2023/05/09 06:34:16;;;;;;;;;;;;;;;13.96;100.00;96376.38;4964712;28;19949;-84
2023/05/09 06:36:43;;;;;;;;;;;;;;;14.06;100.00;96376.53;4964171;28;19955;-83
2023/05/09 06:39:09;;;;;;;;;;;;;;;14.05;100.00;96374.06;4978066;28;20186;-84
2023/05/09 06:41:36;;;;;;;;;;;;;;;14.11;100.00;96373.91;4968454;28;19965;-84
2023/05/09 06:44:03;;;;;;;;;;;;;;;14.16;100.00;96375.84;4971122;28;19950;-84
2023/05/09 06:46:30;;;;;;;;;;;;;;;14.18;100.00;96377.25;4968354;28;19992;-85
2023/05/09 06:49:00;;;;;;;;;;;;;;;14.22;100.00;96364.78;4967051;28;19959;-84
2023/05/09 06:51:28;;;;;;;;;;;;;;;14.29;100.00;96361.91;4984968;28;19944;-84
2023/05/09 06:53:55;;;;;;;;;;;;;;;14.37;100.00;96364.97;4966048;28;19950;-83
2023/05/09 06:56:24;;;;;;;;;;;;;;;14.46;100.00;96359.94;4965282;28;19952;-83
2023/05/09 06:58:50;;;;;;;;;;;;;;;14.45;100.00;96357.50;4966497;28;19976;-84
2023/05/09 07:01:17;;;;;;;;;;;;;;;14.50;100.00;96354.84;4983945;28;19983;-83
2023/05/09 07:03:45;;;;;;;;;;;;;;;14.56;100.00;96359.25;4964425;28;19954;-85
2023/05/09 07:06:14;;;;;;;;;;;;;;;14.61;100.00;96353.88;4983435;28;19987;-84
2023/05/09 07:08:41;;;;;;;;;;;;;;;14.73;100.00;96344.47;4964607;28;19970;-85
2023/05/09 07:11:08;;;;;;;;;;;;;;;14.78;100.00;96343.72;4962088;28;19949;-84
2023/05/09 07:13:35;;;;;;;;;;;;;;;14.87;100.00;96342.19;4980056;28;19948;-85
2023/05/09 07:16:02;;;;;;;;;;;;;;;15.02;100.00;96336.88;4967268;28;20029;-83
2023/05/09 07:18:30;;;;;;;;;;;;;;;15.14;100.00;96320.41;4966080;28;19963;-84
2023/05/09 07:20:56;;;;;;;;;;;;;;;15.11;100.00;96326.34;4964183;28;20017;-84
2023/05/09 07:23:25;;;;;;;;;;;;;;;15.08;100.00;96324.97;4961800;28;19954;-84
2023/05/09 07:25:55;;;;;;;;;;;;;;;15.11;100.00;96319.03;4959140;28;20029;-84
2023/05/09 07:28:23;;;;;;;;;;;;;;;15.27;100.00;96310.97;4970156;28;19944;-85
2023/05/09 07:30:50;;;;;;;;;;;;;;;15.72;100.00;96311.31;4958873;28;19953;-84
2023/05/09 07:33:17;;;;;;;;;;;;;;;16.04;100.00;96299.50;4981358;28;19949;-84
2023/05/09 07:35:43;;;;;;;;;;;;;;;16.24;100.00;96305.84;4967957;28;19952;-84
2023/05/09 07:38:10;;;;;;;;;;;;;;;16.40;100.00;96298.53;4968287;28;19949;-84
2023/05/09 07:40:38;;;;;;;;;;;;;;;16.41;100.00;96289.28;4958606;28;19966;-85
2023/05/09 07:43:05;;;;;;;;;;;;;;;16.53;100.00;96276.22;4982884;28;19946;-85
2023/05/09 07:45:33;;;;;;;;;;;;;;;16.75;100.00;96275.19;4956275;28;19946;-85
2023/05/09 07:48:00;;;;;;;;;;;;;;;16.76;100.00;96274.13;4975454;28;19964;-84
2023/05/09 07:50:29;;;;;;;;;;;;;;;16.82;100.00;96270.28;4967480;28;19946;-85
2023/05/09 07:52:56;;;;;;;;;;;;;;;16.88;100.00;96261.03;4968614;28;20043;-84
2023/05/09 07:55:23;;;;;;;;;;;;;;;16.98;100.00;96250.13;4963368;28;19947;-84
2023/05/09 07:57:51;;;;;;;;;;;;;;;17.13;100.00;96247.38;4972057;28;19950;-84
2023/05/09 08:00:22;;;;;;;;;;;;;;;17.32;100.00;96250.38;4987609;28;19949;-84
2023/05/09 08:02:50;;;;;;;;;;;;;;;17.48;100.00;96238.31;4983265;28;19947;-84
2023/05/09 08:05:17;;;;;;;;;;;;;;;17.70;100.00;96224.34;4966014;28;19960;-85
2023/05/09 08:07:44;;;;;;;;;;;;;;;17.78;100.00;96226.50;4984571;28;20021;-84
2023/05/09 08:10:11;;;;;;;;;;;;;;;17.90;100.00;96224.28;4970083;28;20001;-84
2023/05/09 08:12:38;;;;;;;;;;;;;;;18.13;100.00;96215.44;4954478;28;19990;-85
2023/05/09 08:15:08;;;;;;;;;;;;;;;18.22;100.00;96212.94;4984412;28;19952;-82
2023/05/09 08:17:35;;;;;;;;;;;;;;;18.40;100.00;96206.00;4963953;28;20060;-84
2023/05/09 08:20:02;;;;;;;;;;;;;;;18.46;100.00;96194.72;4968481;28;20032;-85
2023/05/09 08:22:29;;;;;;;;;;;;;;;18.53;100.00;96194.44;4967465;28;19955;-84
2023/05/09 08:24:56;;;;;;;;;;;;;;;18.54;100.00;96196.06;4981932;28;19956;-85
2023/05/09 08:27:23;;;;;;;;;;;;;;;18.71;100.00;96182.84;4962573;28;19997;-84
2023/05/09 08:29:50;;;;;;;;;;;;;;;18.64;100.00;96185.06;4968514;28;20022;-85
2023/05/09 08:32:18;;;;;;;;;;;;;;;18.75;100.00;96172.13;4957451;28;19947;-85
2023/05/09 08:34:45;;;;;;;;;;;;;;;18.89;100.00;96164.91;4968549;28;19943;-85
2023/05/09 08:37:12;;;;;;;;;;;;;;;19.16;100.00;96158.91;4959586;28;19944;-85
2023/05/09 08:39:39;;;;;;;;;;;;;;;19.20;100.00;96154.50;4953853;28;19945;-84
2023/05/09 08:42:06;;;;;;;;;;;;;;;19.35;100.00;96148.03;4966491;28;19961;-86
2023/05/09 08:44:32;;;;;;;;;;;;;;;19.43;100.00;96142.72;4963654;28;19953;-85
2023/05/09 08:47:00;;;;;;;;;;;;;;;19.31;100.00;96142.31;4965437;28;19950;-85
2023/05/09 08:49:29;;;;;;;;;;;;;;;19.29;100.00;96130.84;4968910;28;19942;-86
2023/05/09 08:51:56;;;;;;;;;;;;;;;19.31;100.00;96134.09;4957510;28;20000;-86
2023/05/09 08:54:23;;;;;;;;;;;;;;;19.44;100.00;96121.66;4980719;28;19991;-84
2023/05/09 08:56:51;;;;;;;;;;;;;;;19.50;100.00;96115.84;4976377;28;19975;-83
2023/05/09 08:59:18;;;;;;;;;;;;;;;19.53;100.00;96115.25;4959372;28;20015;-85
2023/05/09 09:01:45;;;;;;;;;;;;;;;19.64;100.00;96111.28;4958795;28;20004;-84
2023/05/09 09:04:12;;;;;;;;;;;;;;;19.71;100.00;96104.63;4968624;28;19946;-85
2023/05/09 09:06:41;;;;;;;;;;;;;;;19.63;100.00;96104.19;4968200;28;19952;-84
2023/05/09 09:09:08;;;;;;;;;;;;;;;19.64;100.00;96097.59;4967988;28;20044;-85
2023/05/09 09:11:35;;;;;;;;;;;;;;;19.85;100.00;96100.06;4969078;28;19952;-86
2023/05/09 09:14:06;;;;;;;;;;;;;;;19.98;100.00;96099.34;4967498;28;19977;-85
2023/05/09 09:16:34;;;;;;;;;;;;;;;20.08;100.00;96093.69;4977110;28;20063;-86
2023/05/09 09:19:01;;;;;;;;;;;;;;;20.19;100.00;96089.69;4976898;28;19974;-85
2023/05/09 09:21:28;;;;;;;;;;;;;;;20.05;100.00;96080.59;4970536;28;20030;-86
2023/05/09 09:23:57;;;;;;;;;;;;;;;20.06;100.00;96079.47;4958317;28;19953;-85
2023/05/09 09:26:28;;;;;;;;;;;;;;;20.15;100.00;96077.72;4972931;28;19951;-85
2023/05/09 09:28:55;;;;;;;;;;;;;;;20.32;100.00;96072.50;4953098;28;19953;-85
2023/05/09 09:31:23;;;;;;;;;;;;;;;20.41;100.00;96066.38;4953730;28;19945;-85
2023/05/09 09:33:50;;;;;;;;;;;;;;;20.44;100.00;96063.00;4960508;28;19941;-86
2023/05/09 09:36:17;;;;;;;;;;;;;;;20.47;100.00;96051.44;4983313;28;19951;-85
2023/05/09 09:38:44;;;;;;;;;;;;;;;20.66;97.87;96054.97;4977857;28;19992;-85
2023/05/09 09:41:12;;;;;;;;;;;;;;;20.54;96.59;96040.91;4966090;28;19960;-86
2023/05/09 09:43:39;;;;;;;;;;;;;;;20.74;95.34;96046.03;4961111;28;19957;-84
2023/05/09 09:46:06;;;;;;;;;;;;;;;20.82;96.40;96034.38;4961222;28;19952;-86
2023/05/09 09:48:33;;;;;;;;;;;;;;;20.73;93.17;96030.69;4968469;28;19950;-86
2023/05/09 09:51:04;;;;;;;;;;;;;;;20.82;91.20;96031.63;4965302;28;19948;-86
2023/05/09 09:53:38;;;;;;;;;;;;;;;20.86;91.25;96024.38;4978598;28;19947;-86
2023/05/09 09:56:05;;;;;;;;;;;;;;;20.88;90.86;96013.13;4958142;28;19969;-85
2023/05/09 09:58:34;;;;;;;;;;;;;;;20.93;89.27;96016.56;4978983;28;20039;-84
2023/05/09 10:01:04;;;;;;;;;;;;;;;20.97;90.20;96012.09;4970914;28;19953;-85
2023/05/09 10:03:35;;;;;;;;;;;;;;;21.10;90.20;96005.78;4973007;28;19973;-87
2023/05/09 10:06:03;;;;;;;;;;;;;;;21.33;86.33;95992.19;4971478;28;19961;-85
2023/05/09 10:08:29;;;;;;;;;;;;;;;21.44;84.85;95994.41;4977100;28;19944;-85
2023/05/09 10:10:57;;;;;;;;;;;;;;;21.61;82.27;95988.25;4968896;28;19972;-85
2023/05/09 10:13:25;;;;;;;;;;;;;;;21.69;83.27;95982.03;4969038;28;19944;-85
2023/05/09 10:15:54;;;;;;;;;;;;;;;21.98;82.36;95978.09;4969063;28;19952;-86
2023/05/09 10:18:25;;;;;;;;;;;;;;;22.11;81.16;95978.06;4970137;28;19969;-85
2023/05/09 10:20:51;;;;;;;;;;;;;;;22.12;80.59;95976.09;4967735;28;19959;-85
2023/05/09 10:23:20;;;;;;;;;;;;;;;22.22;78.89;95970.34;4971384;28;19946;-86
2023/05/09 10:25:48;;;;;;;;;;;;;;;22.30;77.89;95955.84;4965916;28;19945;-86
2023/05/09 10:28:17;;;;;;;;;;;;;;;22.23;75.39;95949.97;4985709;28;19944;-85
2023/05/09 10:30:50;;;;;;;;;;;;;;;21.92;84.19;95949.09;4982854;28;20000;-85
2023/05/09 10:33:21;;;;;;;;;;;;;;;22.13;81.77;95944.72;4967567;28;20015;-85
2023/05/09 10:35:49;;;;;;;;;;;;;;;22.00;80.87;95938.19;4966788;28;19957;-86
2023/05/09 10:38:16;;;;;;;;;;;;;;;21.99;83.06;95935.75;4981374;28;20027;-86
2023/05/09 10:40:46;;;;;;;;;;;;;;;22.14;82.96;95940.88;4970778;28;19948;-85
2023/05/09 10:43:13;;;;;;;;;;;;;;;22.18;76.04;95925.38;4970398;28;19995;-85
2023/05/09 10:45:40;;;;;;;;;;;;;;;22.10;75.82;95924.19;4986584;28;19948;-85
2023/05/09 10:48:08;;;;;;;;;;;;;;;22.35;76.78;95919.97;4967370;28;19997;-85
2023/05/09 10:50:39;;;;;;;;;;;;;;;22.24;74.75;95913.09;4983507;28;20047;-85
2023/05/09 10:53:12;;;;;;;;;;;;;;;22.19;78.49;95913.25;4985541;28;19949;-87
2023/05/09 10:55:48;;;;;;;;;;;;;;;22.26;78.23;95905.38;4967333;28;19949;-86
2023/05/09 10:58:19;;;;;;;;;;;;;;;22.19;80.65;95894.81;4967443;28;20021;-86
2023/05/09 11:00:46;;;;;;;;;;;;;;;22.14;79.81;95888.63;4956124;28;19946;-85
2023/05/09 11:03:13;;;;;;;;;;;;;;;21.98;82.07;95887.38;4971723;28;19964;-84
2023/05/09 11:05:41;;;;;;;;;;;;;;;21.98;82.07;95890.94;4969681;28;19992;-86
2023/05/09 11:08:22;;;;;;;;;;;;;;;22.03;84.75;95879.81;4970236;28;19945;-86
2023/05/09 11:10:50;;;;;;;;;;;;;;;22.05;83.08;95876.75;4959697;28;19975;-86
2023/05/09 11:13:22;;;;;;;;;;;;;;;22.09;81.57;95869.53;4968446;28;19945;-86
2023/05/09 11:16:07;;;;;;;;;;;;;;;22.06;80.90;95856.38;4969449;28;19976;-86
2023/05/09 11:18:34;;;;;;;;;;;;;;;21.95;82.00;95855.03;4955019;28;19965;-85
2023/05/09 11:21:08;;;;;;;;;;;;;;;21.97;85.17;95855.50;4960273;28;20040;-85
2023/05/09 11:23:35;;;;;;;;;;;;;;;22.08;84.00;95846.72;4975215;28;19954;-84
2023/05/09 11:26:06;;;;;;;;;;;;;;;22.16;84.37;95856.94;4967218;28;19950;-85
2023/05/09 11:28:34;;;;;;;;;;;;;;;22.06;83.36;95843.47;4968593;28;19949;-86
2023/05/09 11:31:10;;;;;;;;;;;;;;;22.14;82.93;95841.88;4953782;28;19988;-86
2023/05/09 11:33:38;;;;;;;;;;;;;;;22.00;83.90;95841.97;4957811;28;20346;-86
2023/05/09 11:36:18;;;;;;;;;;;;;;;22.03;82.42;95844.06;4984936;28;19950;-86
2023/05/09 11:38:46;;;;;;;;;;;;;;;21.85;82.89;95845.09;4983351;28;19971;-87
2023/05/09 11:41:12;;;;;;;;;;;;;;;21.86;85.54;95827.47;4967884;28;19951;-85
2023/05/09 11:43:40;;;;;;;;;;;;;;;21.95;84.28;95827.53;4967585;28;19966;-86
2023/05/09 11:46:07;;;;;;;;;;;;;;;22.02;83.93;95827.91;4965572;28;19945;-85
2023/05/09 11:48:37;;;;;;;;;;;;;;;22.08;83.25;95823.91;4971657;28;19976;-86
2023/05/09 11:51:04;;;;;;;;;;;;;;;22.11;82.44;95813.09;4968866;28;19960;-86
2023/05/09 11:53:32;;;;;;;;;;;;;;;22.11;81.53;95807.59;4966759;28;19953;-86
2023/05/09 11:56:01;;;;;;;;;;;;;;;22.10;82.92;95816.16;4967141;28;20005;-86
2023/05/09 11:58:28;;;;;;;;;;;;;;;22.17;81.36;95813.75;4966446;28;19943;-87
2023/05/09 12:00:55;;;;;;;;;;;;;;;22.00;79.32;95810.91;4962719;28;19953;-87
2023/05/09 12:03:22;;;;;;;;;;;;;;;21.89;82.74;95802.09;4964203;28;19958;-86
2023/05/09 12:05:49;;;;;;;;;;;;;;;22.04;82.72;95803.66;4968273;28;19944;-86
2023/05/09 12:08:16;;;;;;;;;;;;;;;22.04;80.27;95795.41;4971560;28;19959;-86
2023/05/09 12:10:45;;;;;;;;;;;;;;;22.02;82.28;95789.44;4969037;28;20000;-87
2023/05/09 12:13:12;;;;;;;;;;;;;;;22.03;81.65;95791.84;4966396;28;20039;-87
2023/05/09 12:15:38;;;;;;;;;;;;;;;21.98;81.74;95791.19;4971321;28;20030;-86
2023/05/09 12:18:06;;;;;;;;;;;;;;;21.95;84.33;95789.06;4958380;28;19964;-87
2023/05/09 12:20:41;;;;;;;;;;;;;;;21.90;82.38;95793.53;4959252;28;19952;-87
2023/05/09 12:23:09;;;;;;;;;;;;;;;21.87;82.11;95790.59;4964125;28;20006;-86
2023/05/09 12:25:36;;;;;;;;;;;;;;;21.78;83.42;95785.06;4970066;28;20035;-86
2023/05/09 12:28:04;;;;;;;;;;;;;;;21.69;83.32;95781.44;4969880;28;19948;-86